sensor_id;sensor_type;location;lat;lon;timestamp;P1;durP1;ratioP1;P2;durP2;ratioP2
29908;SDS011;36247;51.952;6.146;2022-12-10T00:02:08;81.00;;;31.95;;
29908;SDS011;36247;51.952;6.146;2022-12-10T00:04:33;81.65;;;32.30;;
29908;SDS011;36247;51.952;6.146;2022-12-10T00:06:59;72.82;;;31.42;;
29908;SDS011;36247;51.952;6.146;2022-12-10T00:09:24;68.75;;;28.50;;
29908;SDS011;36247;51.952;6.146;2022-12-10T00:11:50;65.38;;;26.92;;
29908;SDS011;36247;51.952;6.146;2022-12-10T00:14:15;70.03;;;28.73;;
29908;SDS011;36247;51.952;6.146;2022-12-10T00:16:41;66.75;;;26.63;;
29908;SDS011;36247;51.952;6.146;2022-12-10T00:19:07;77.30;;;30.50;;
29908;SDS011;36247;51.952;6.146;2022-12-10T00:21:33;76.05;;;30.95;;
29908;SDS011;36247;51.952;6.146;2022-12-10T00:24:00;62.10;;;29.17;;
29908;SDS011;36247;51.952;6.146;2022-12-10T00:26:31;68.80;;;28.58;;
29908;SDS011;36247;51.952;6.146;2022-12-10T00:29:00;73.97;;;29.60;;
29908;SDS011;36247;51.952;6.146;2022-12-10T00:31:28;72.00;;;27.25;;
29908;SDS011;36247;51.952;6.146;2022-12-10T00:33:56;74.25;;;28.00;;
29908;SDS011;36247;51.952;6.146;2022-12-10T00:36:24;69.90;;;26.55;;
29908;SDS011;36247;51.952;6.146;2022-12-10T00:38:54;70.30;;;30.10;;
29908;SDS011;36247;51.952;6.146;2022-12-10T00:41:19;64.55;;;27.40;;
29908;SDS011;36247;51.952;6.146;2022-12-10T00:43:45;65.38;;;26.88;;
29908;SDS011;36247;51.952;6.146;2022-12-10T00:46:12;69.43;;;29.15;;
29908;SDS011;36247;51.952;6.146;2022-12-10T00:48:39;69.50;;;27.55;;
29908;SDS011;36247;51.952;6.146;2022-12-10T00:53:38;69.03;;;29.23;;
29908;SDS011;36247;51.952;6.146;2022-12-10T00:56:05;71.30;;;26.75;;
29908;SDS011;36247;51.952;6.146;2022-12-10T00:58:32;70.32;;;28.58;;
29908;SDS011;36247;51.952;6.146;2022-12-10T01:03:46;70.07;;;26.95;;
29908;SDS011;36247;51.952;6.146;2022-12-10T01:06:17;72.30;;;27.20;;
29908;SDS011;36247;51.952;6.146;2022-12-10T01:08:44;79.10;;;27.35;;
29908;SDS011;36247;51.952;6.146;2022-12-10T01:11:11;69.60;;;26.38;;
29908;SDS011;36247;51.952;6.146;2022-12-10T01:13:39;72.72;;;30.13;;
29908;SDS011;36247;51.952;6.146;2022-12-10T01:16:06;66.82;;;27.02;;
29908;SDS011;36247;51.952;6.146;2022-12-10T01:18:33;63.20;;;27.27;;
29908;SDS011;36247;51.952;6.146;2022-12-10T01:21:00;65.75;;;25.70;;
29908;SDS011;36247;51.952;6.146;2022-12-10T01:23:27;72.80;;;29.13;;
29908;SDS011;36247;51.952;6.146;2022-12-10T01:25:53;69.55;;;28.15;;
29908;SDS011;36247;51.952;6.146;2022-12-10T01:28:18;72.75;;;28.42;;
29908;SDS011;36247;51.952;6.146;2022-12-10T01:30:44;71.60;;;27.38;;
29908;SDS011;36247;51.952;6.146;2022-12-10T01:33:09;70.00;;;27.17;;
29908;SDS011;36247;51.952;6.146;2022-12-10T01:35:36;75.28;;;29.25;;
29908;SDS011;36247;51.952;6.146;2022-12-10T01:38:02;64.88;;;27.48;;
29908;SDS011;36247;51.952;6.146;2022-12-10T01:40:28;66.57;;;28.08;;
29908;SDS011;36247;51.952;6.146;2022-12-10T01:42:53;70.00;;;27.15;;
29908;SDS011;36247;51.952;6.146;2022-12-10T01:45:19;76.85;;;30.58;;
29908;SDS011;36247;51.952;6.146;2022-12-10T01:47:44;77.38;;;30.00;;
29908;SDS011;36247;51.952;6.146;2022-12-10T01:50:10;71.07;;;27.17;;
29908;SDS011;36247;51.952;6.146;2022-12-10T01:52:36;74.20;;;28.77;;
29908;SDS011;36247;51.952;6.146;2022-12-10T01:55:06;67.72;;;26.13;;
29908;SDS011;36247;51.952;6.146;2022-12-10T01:57:51;77.53;;;27.88;;
29908;SDS011;36247;51.952;6.146;2022-12-10T02:00:17;68.75;;;25.40;;
29908;SDS011;36247;51.952;6.146;2022-12-10T02:02:46;77.32;;;27.00;;
29908;SDS011;36247;51.952;6.146;2022-12-10T02:05:23;74.90;;;27.30;;
29908;SDS011;36247;51.952;6.146;2022-12-10T02:13:40;57.93;;;21.83;;
29908;SDS011;36247;51.952;6.146;2022-12-10T02:16:14;72.13;;;27.77;;
29908;SDS011;36247;51.952;6.146;2022-12-10T02:21:15;68.97;;;28.88;;
29908;SDS011;36247;51.952;6.146;2022-12-10T02:23:46;75.57;;;30.23;;
29908;SDS011;36247;51.952;6.146;2022-12-10T02:29:23;82.93;;;31.02;;
29908;SDS011;36247;51.952;6.146;2022-12-10T02:31:50;73.45;;;27.92;;
29908;SDS011;36247;51.952;6.146;2022-12-10T02:34:20;72.60;;;27.60;;
29908;SDS011;36247;51.952;6.146;2022-12-10T02:36:48;73.00;;;26.52;;
29908;SDS011;36247;51.952;6.146;2022-12-10T02:39:24;68.20;;;27.70;;
29908;SDS011;36247;51.952;6.146;2022-12-10T02:41:57;83.90;;;29.05;;
29908;SDS011;36247;51.952;6.146;2022-12-10T02:44:27;75.18;;;29.27;;
29908;SDS011;36247;51.952;6.146;2022-12-10T02:46:56;66.70;;;26.38;;
29908;SDS011;36247;51.952;6.146;2022-12-10T02:49:28;69.95;;;27.80;;
29908;SDS011;36247;51.952;6.146;2022-12-10T02:51:59;66.30;;;28.10;;
29908;SDS011;36247;51.952;6.146;2022-12-10T02:54:38;72.38;;;27.80;;
29908;SDS011;36247;51.952;6.146;2022-12-10T03:00:00;75.28;;;28.88;;
29908;SDS011;36247;51.952;6.146;2022-12-10T03:02:46;81.38;;;28.15;;
29908;SDS011;36247;51.952;6.146;2022-12-10T03:08:27;72.55;;;28.88;;
29908;SDS011;36247;51.952;6.146;2022-12-10T03:13:40;72.97;;;29.77;;
29908;SDS011;36247;51.952;6.146;2022-12-10T03:16:20;76.43;;;28.88;;
29908;SDS011;36247;51.952;6.146;2022-12-10T03:18:49;68.15;;;28.42;;
29908;SDS011;36247;51.952;6.146;2022-12-10T03:21:18;71.35;;;29.10;;
29908;SDS011;36247;51.952;6.146;2022-12-10T03:23:45;72.32;;;27.40;;
29908;SDS011;36247;51.952;6.146;2022-12-10T03:26:12;74.57;;;30.75;;
29908;SDS011;36247;51.952;6.146;2022-12-10T03:28:45;75.30;;;27.73;;
29908;SDS011;36247;51.952;6.146;2022-12-10T03:31:15;77.53;;;27.75;;
29908;SDS011;36247;51.952;6.146;2022-12-10T03:33:42;77.72;;;29.17;;
29908;SDS011;36247;51.952;6.146;2022-12-10T03:36:09;79.88;;;27.95;;
29908;SDS011;36247;51.952;6.146;2022-12-10T03:38:35;73.82;;;26.98;;
29908;SDS011;36247;51.952;6.146;2022-12-10T03:41:02;76.93;;;28.52;;
29908;SDS011;36247;51.952;6.146;2022-12-10T03:43:28;70.82;;;26.13;;
29908;SDS011;36247;51.952;6.146;2022-12-10T03:45:54;77.78;;;27.63;;
29908;SDS011;36247;51.952;6.146;2022-12-10T03:48:19;68.43;;;27.40;;
29908;SDS011;36247;51.952;6.146;2022-12-10T03:50:45;81.93;;;29.40;;
29908;SDS011;36247;51.952;6.146;2022-12-10T03:53:10;84.43;;;30.90;;
29908;SDS011;36247;51.952;6.146;2022-12-10T03:55:36;86.38;;;30.45;;
29908;SDS011;36247;51.952;6.146;2022-12-10T03:58:02;80.90;;;31.48;;
29908;SDS011;36247;51.952;6.146;2022-12-10T04:00:28;86.88;;;32.63;;
29908;SDS011;36247;51.952;6.146;2022-12-10T04:02:53;87.13;;;31.13;;
29908;SDS011;36247;51.952;6.146;2022-12-10T04:05:19;91.68;;;32.03;;
29908;SDS011;36247;51.952;6.146;2022-12-10T04:07:45;79.97;;;31.20;;
29908;SDS011;36247;51.952;6.146;2022-12-10T04:10:10;77.03;;;29.63;;
29908;SDS011;36247;51.952;6.146;2022-12-10T04:12:36;76.72;;;28.75;;
29908;SDS011;36247;51.952;6.146;2022-12-10T04:15:01;78.20;;;27.92;;
29908;SDS011;36247;51.952;6.146;2022-12-10T04:17:45;81.05;;;28.20;;
29908;SDS011;36247;51.952;6.146;2022-12-10T04:20:11;64.82;;;27.13;;
29908;SDS011;36247;51.952;6.146;2022-12-10T04:22:56;76.43;;;29.15;;
29908;SDS011;36247;51.952;6.146;2022-12-10T04:25:41;76.57;;;28.60;;
29908;SDS011;36247;51.952;6.146;2022-12-10T04:28:25;76.03;;;29.15;;
29908;SDS011;36247;51.952;6.146;2022-12-10T04:30:51;78.75;;;28.55;;
29908;SDS011;36247;51.952;6.146;2022-12-10T04:33:16;76.03;;;30.20;;
29908;SDS011;36247;51.952;6.146;2022-12-10T04:35:42;71.32;;;29.13;;
29908;SDS011;36247;51.952;6.146;2022-12-10T04:38:07;76.47;;;30.80;;
29908;SDS011;36247;51.952;6.146;2022-12-10T04:40:33;87.57;;;31.63;;
29908;SDS011;36247;51.952;6.146;2022-12-10T04:42:58;79.53;;;30.15;;
29908;SDS011;36247;51.952;6.146;2022-12-10T04:45:24;84.90;;;29.85;;
29908;SDS011;36247;51.952;6.146;2022-12-10T04:47:49;93.30;;;32.45;;
29908;SDS011;36247;51.952;6.146;2022-12-10T04:50:15;75.47;;;28.83;;
29908;SDS011;36247;51.952;6.146;2022-12-10T04:52:40;86.10;;;30.23;;
29908;SDS011;36247;51.952;6.146;2022-12-10T04:55:05;84.75;;;31.42;;
29908;SDS011;36247;51.952;6.146;2022-12-10T04:57:31;80.70;;;30.42;;
29908;SDS011;36247;51.952;6.146;2022-12-10T04:59:57;83.35;;;30.83;;
29908;SDS011;36247;51.952;6.146;2022-12-10T05:02:22;84.18;;;30.38;;
29908;SDS011;36247;51.952;6.146;2022-12-10T05:04:48;83.47;;;31.33;;
29908;SDS011;36247;51.952;6.146;2022-12-10T05:07:14;86.35;;;29.15;;
29908;SDS011;36247;51.952;6.146;2022-12-10T05:09:40;77.18;;;27.23;;
29908;SDS011;36247;51.952;6.146;2022-12-10T05:12:05;94.50;;;33.03;;
29908;SDS011;36247;51.952;6.146;2022-12-10T05:14:31;89.32;;;31.52;;
29908;SDS011;36247;51.952;6.146;2022-12-10T05:16:56;91.32;;;31.73;;
29908;SDS011;36247;51.952;6.146;2022-12-10T05:19:22;85.18;;;30.38;;
29908;SDS011;36247;51.952;6.146;2022-12-10T05:21:48;92.82;;;33.00;;
29908;SDS011;36247;51.952;6.146;2022-12-10T05:24:33;89.38;;;31.52;;
29908;SDS011;36247;51.952;6.146;2022-12-10T05:26:58;79.70;;;30.27;;
29908;SDS011;36247;51.952;6.146;2022-12-10T05:29:24;88.20;;;29.42;;
29908;SDS011;36247;51.952;6.146;2022-12-10T05:31:51;87.22;;;33.38;;
29908;SDS011;36247;51.952;6.146;2022-12-10T05:34:16;91.57;;;31.55;;
29908;SDS011;36247;51.952;6.146;2022-12-10T05:36:42;98.78;;;33.38;;
29908;SDS011;36247;51.952;6.146;2022-12-10T05:39:08;100.10;;;33.03;;
29908;SDS011;36247;51.952;6.146;2022-12-10T05:41:36;82.80;;;34.80;;
29908;SDS011;36247;51.952;6.146;2022-12-10T05:44:03;85.50;;;32.63;;
29908;SDS011;36247;51.952;6.146;2022-12-10T05:46:30;85.05;;;31.65;;
29908;SDS011;36247;51.952;6.146;2022-12-10T05:48:58;89.68;;;32.17;;
29908;SDS011;36247;51.952;6.146;2022-12-10T05:51:26;90.82;;;32.83;;
29908;SDS011;36247;51.952;6.146;2022-12-10T05:53:54;85.82;;;33.13;;
29908;SDS011;36247;51.952;6.146;2022-12-10T05:56:21;94.28;;;33.53;;
29908;SDS011;36247;51.952;6.146;2022-12-10T05:58:48;96.38;;;34.13;;
29908;SDS011;36247;51.952;6.146;2022-12-10T06:01:16;108.45;;;37.50;;
29908;SDS011;36247;51.952;6.146;2022-12-10T06:03:44;100.97;;;33.60;;
29908;SDS011;36247;51.952;6.146;2022-12-10T06:06:10;113.70;;;37.80;;
29908;SDS011;36247;51.952;6.146;2022-12-10T06:08:37;138.32;;;41.80;;
29908;SDS011;36247;51.952;6.146;2022-12-10T06:11:07;130.40;;;43.42;;
29908;SDS011;36247;51.952;6.146;2022-12-10T06:13:34;137.15;;;42.83;;
29908;SDS011;36247;51.952;6.146;2022-12-10T06:16:03;142.32;;;40.08;;
29908;SDS011;36247;51.952;6.146;2022-12-10T06:18:30;129.00;;;31.45;;
29908;SDS011;36247;51.952;6.146;2022-12-10T06:20:56;176.05;;;43.63;;
29908;SDS011;36247;51.952;6.146;2022-12-10T06:23:21;179.63;;;42.35;;
29908;SDS011;36247;51.952;6.146;2022-12-10T06:25:47;163.80;;;43.22;;
29908;SDS011;36247;51.952;6.146;2022-12-10T06:28:12;125.50;;;43.75;;
29908;SDS011;36247;51.952;6.146;2022-12-10T06:30:37;142.80;;;41.47;;
29908;SDS011;36247;51.952;6.146;2022-12-10T06:33:03;155.05;;;43.45;;
29908;SDS011;36247;51.952;6.146;2022-12-10T06:35:28;154.68;;;38.30;;
29908;SDS011;36247;51.952;6.146;2022-12-10T06:37:54;178.07;;;44.03;;
29908;SDS011;36247;51.952;6.146;2022-12-10T06:40:19;144.88;;;41.75;;
29908;SDS011;36247;51.952;6.146;2022-12-10T06:42:45;129.48;;;35.45;;
29908;SDS011;36247;51.952;6.146;2022-12-10T06:45:10;177.10;;;38.75;;
29908;SDS011;36247;51.952;6.146;2022-12-10T06:47:36;198.77;;;37.05;;
29908;SDS011;36247;51.952;6.146;2022-12-10T06:50:02;128.43;;;34.65;;
29908;SDS011;36247;51.952;6.146;2022-12-10T06:52:28;130.48;;;37.65;;
29908;SDS011;36247;51.952;6.146;2022-12-10T06:54:53;224.68;;;40.38;;
29908;SDS011;36247;51.952;6.146;2022-12-10T06:57:20;177.32;;;40.47;;
29908;SDS011;36247;51.952;6.146;2022-12-10T06:59:46;137.48;;;35.90;;
29908;SDS011;36247;51.952;6.146;2022-12-10T07:02:11;174.25;;;43.47;;
29908;SDS011;36247;51.952;6.146;2022-12-10T07:04:37;159.90;;;41.05;;
29908;SDS011;36247;51.952;6.146;2022-12-10T07:07:02;148.65;;;46.42;;
29908;SDS011;36247;51.952;6.146;2022-12-10T07:09:28;149.77;;;42.67;;
29908;SDS011;36247;51.952;6.146;2022-12-10T07:11:53;153.30;;;44.10;;
29908;SDS011;36247;51.952;6.146;2022-12-10T07:14:19;171.27;;;44.28;;
29908;SDS011;36247;51.952;6.146;2022-12-10T07:16:44;149.10;;;44.35;;
29908;SDS011;36247;51.952;6.146;2022-12-10T07:19:10;132.82;;;40.35;;
29908;SDS011;36247;51.952;6.146;2022-12-10T07:21:37;65.60;;;25.67;;
29908;SDS011;36247;51.952;6.146;2022-12-10T07:24:06;189.38;;;40.38;;
29908;SDS011;36247;51.952;6.146;2022-12-10T07:26:35;128.68;;;35.83;;
29908;SDS011;36247;51.952;6.146;2022-12-10T07:29:02;174.52;;;38.90;;
29908;SDS011;36247;51.952;6.146;2022-12-10T07:31:29;229.75;;;42.10;;
29908;SDS011;36247;51.952;6.146;2022-12-10T07:33:57;111.22;;;36.22;;
29908;SDS011;36247;51.952;6.146;2022-12-10T07:36:23;101.22;;;31.08;;
29908;SDS011;36247;51.952;6.146;2022-12-10T07:38:50;137.93;;;38.95;;
29908;SDS011;36247;51.952;6.146;2022-12-10T07:41:18;140.95;;;36.63;;
29908;SDS011;36247;51.952;6.146;2022-12-10T07:43:44;108.82;;;32.38;;
29908;SDS011;36247;51.952;6.146;2022-12-10T07:46:12;74.47;;;25.63;;
29908;SDS011;36247;51.952;6.146;2022-12-10T07:48:40;116.15;;;34.22;;
29908;SDS011;36247;51.952;6.146;2022-12-10T07:51:07;131.70;;;40.97;;
29908;SDS011;36247;51.952;6.146;2022-12-10T07:53:33;94.55;;;27.13;;
29908;SDS011;36247;51.952;6.146;2022-12-10T07:55:59;116.05;;;34.42;;
29908;SDS011;36247;51.952;6.146;2022-12-10T07:58:24;125.13;;;35.10;;
29908;SDS011;36247;51.952;6.146;2022-12-10T08:00:50;127.90;;;31.83;;
29908;SDS011;36247;51.952;6.146;2022-12-10T08:03:15;106.25;;;35.78;;
29908;SDS011;36247;51.952;6.146;2022-12-10T08:05:41;107.40;;;30.90;;
29908;SDS011;36247;51.952;6.146;2022-12-10T08:08:07;126.40;;;36.22;;
29908;SDS011;36247;51.952;6.146;2022-12-10T08:10:36;132.55;;;34.88;;
29908;SDS011;36247;51.952;6.146;2022-12-10T08:13:02;110.43;;;30.95;;
29908;SDS011;36247;51.952;6.146;2022-12-10T08:15:29;113.57;;;34.38;;
29908;SDS011;36247;51.952;6.146;2022-12-10T08:17:55;132.02;;;34.47;;
29908;SDS011;36247;51.952;6.146;2022-12-10T08:20:22;135.00;;;32.95;;
29908;SDS011;36247;51.952;6.146;2022-12-10T08:22:49;138.40;;;33.47;;
29908;SDS011;36247;51.952;6.146;2022-12-10T08:25:15;148.25;;;35.20;;
29908;SDS011;36247;51.952;6.146;2022-12-10T08:27:40;144.38;;;35.67;;
29908;SDS011;36247;51.952;6.146;2022-12-10T08:30:06;123.07;;;31.10;;
29908;SDS011;36247;51.952;6.146;2022-12-10T08:32:32;142.50;;;37.00;;
29908;SDS011;36247;51.952;6.146;2022-12-10T08:35:00;117.80;;;34.83;;
29908;SDS011;36247;51.952;6.146;2022-12-10T08:37:25;112.07;;;36.28;;
29908;SDS011;36247;51.952;6.146;2022-12-10T08:39:51;152.20;;;38.65;;
29908;SDS011;36247;51.952;6.146;2022-12-10T08:42:17;136.35;;;35.70;;
29908;SDS011;36247;51.952;6.146;2022-12-10T08:44:42;148.00;;;35.10;;
29908;SDS011;36247;51.952;6.146;2022-12-10T08:47:08;156.70;;;34.30;;
29908;SDS011;36247;51.952;6.146;2022-12-10T08:49:33;166.63;;;37.70;;
29908;SDS011;36247;51.952;6.146;2022-12-10T08:51:59;135.52;;;35.92;;
29908;SDS011;36247;51.952;6.146;2022-12-10T08:54:24;159.55;;;40.05;;
29908;SDS011;36247;51.952;6.146;2022-12-10T08:56:50;192.07;;;37.92;;
29908;SDS011;36247;51.952;6.146;2022-12-10T08:59:16;133.00;;;36.70;;
29908;SDS011;36247;51.952;6.146;2022-12-10T09:01:41;136.95;;;36.75;;
29908;SDS011;36247;51.952;6.146;2022-12-10T09:04:07;169.15;;;38.75;;
29908;SDS011;36247;51.952;6.146;2022-12-10T09:06:33;186.80;;;43.53;;
29908;SDS011;36247;51.952;6.146;2022-12-10T09:08:59;142.35;;;41.50;;
29908;SDS011;36247;51.952;6.146;2022-12-10T09:11:29;140.05;;;38.22;;
29908;SDS011;36247;51.952;6.146;2022-12-10T09:13:57;155.90;;;38.75;;
29908;SDS011;36247;51.952;6.146;2022-12-10T09:16:30;150.68;;;42.60;;
29908;SDS011;36247;51.952;6.146;2022-12-10T09:18:57;157.68;;;39.33;;
29908;SDS011;36247;51.952;6.146;2022-12-10T09:21:23;149.25;;;40.58;;
29908;SDS011;36247;51.952;6.146;2022-12-10T09:23:49;161.05;;;42.88;;
29908;SDS011;36247;51.952;6.146;2022-12-10T09:26:15;146.77;;;39.58;;
29908;SDS011;36247;51.952;6.146;2022-12-10T09:28:41;156.70;;;42.53;;
29908;SDS011;36247;51.952;6.146;2022-12-10T09:31:07;153.70;;;40.53;;
29908;SDS011;36247;51.952;6.146;2022-12-10T09:33:33;147.65;;;39.70;;
29908;SDS011;36247;51.952;6.146;2022-12-10T09:36:01;139.13;;;41.88;;
29908;SDS011;36247;51.952;6.146;2022-12-10T09:38:29;126.45;;;37.78;;
29908;SDS011;36247;51.952;6.146;2022-12-10T09:40:58;129.63;;;40.58;;
29908;SDS011;36247;51.952;6.146;2022-12-10T09:43:28;145.30;;;38.75;;
29908;SDS011;36247;51.952;6.146;2022-12-10T09:46:08;149.05;;;39.42;;
29908;SDS011;36247;51.952;6.146;2022-12-10T09:51:35;140.05;;;38.72;;
29908;SDS011;36247;51.952;6.146;2022-12-10T09:54:03;151.27;;;44.38;;
29908;SDS011;36247;51.952;6.146;2022-12-10T09:56:40;140.40;;;41.67;;
29908;SDS011;36247;51.952;6.146;2022-12-10T10:04:50;131.73;;;39.50;;
29908;SDS011;36247;51.952;6.146;2022-12-10T10:07:21;143.88;;;41.13;;
29908;SDS011;36247;51.952;6.146;2022-12-10T10:09:50;100.73;;;31.53;;
29908;SDS011;36247;51.952;6.146;2022-12-10T10:12:20;146.23;;;39.40;;
29908;SDS011;36247;51.952;6.146;2022-12-10T10:14:46;148.18;;;39.95;;
29908;SDS011;36247;51.952;6.146;2022-12-10T10:17:28;139.95;;;41.05;;
29908;SDS011;36247;51.952;6.146;2022-12-10T10:19:59;129.23;;;38.13;;
29908;SDS011;36247;51.952;6.146;2022-12-10T10:22:24;129.95;;;40.80;;
29908;SDS011;36247;51.952;6.146;2022-12-10T10:24:51;143.98;;;40.33;;
29908;SDS011;36247;51.952;6.146;2022-12-10T10:27:18;138.70;;;39.88;;
29908;SDS011;36247;51.952;6.146;2022-12-10T10:29:50;129.55;;;38.63;;
29908;SDS011;36247;51.952;6.146;2022-12-10T10:32:22;136.20;;;41.58;;
29908;SDS011;36247;51.952;6.146;2022-12-10T10:34:52;123.45;;;37.03;;
29908;SDS011;36247;51.952;6.146;2022-12-10T10:37:41;128.85;;;37.75;;
29908;SDS011;36247;51.952;6.146;2022-12-10T10:40:25;123.63;;;36.53;;
29908;SDS011;36247;51.952;6.146;2022-12-10T10:43:53;106.15;;;35.80;;
29908;SDS011;36247;51.952;6.146;2022-12-10T10:46:11;109.90;;;33.92;;
29908;SDS011;36247;51.952;6.146;2022-12-10T10:48:39;116.70;;;34.33;;
29908;SDS011;36247;51.952;6.146;2022-12-10T10:53:47;101.07;;;32.90;;
29908;SDS011;36247;51.952;6.146;2022-12-10T10:56:18;110.03;;;34.65;;
29908;SDS011;36247;51.952;6.146;2022-12-10T11:01:23;101.90;;;33.10;;
29908;SDS011;36247;51.952;6.146;2022-12-10T11:03:55;98.53;;;31.83;;
29908;SDS011;36247;51.952;6.146;2022-12-10T11:06:22;93.95;;;29.95;;
29908;SDS011;36247;51.952;6.146;2022-12-10T11:08:48;91.47;;;28.75;;
29908;SDS011;36247;51.952;6.146;2022-12-10T11:11:20;103.60;;;32.35;;
29908;SDS011;36247;51.952;6.146;2022-12-10T11:13:51;102.55;;;31.48;;
29908;SDS011;36247;51.952;6.146;2022-12-10T11:21:27;111.75;;;33.63;;
29908;SDS011;36247;51.952;6.146;2022-12-10T11:23:55;87.88;;;30.05;;
29908;SDS011;36247;51.952;6.146;2022-12-10T11:29:16;84.88;;;29.30;;
29908;SDS011;36247;51.952;6.146;2022-12-10T11:48:44;95.55;;;30.63;;
29908;SDS011;36247;51.952;6.146;2022-12-10T11:51:05;96.93;;;31.40;;
29908;SDS011;36247;51.952;6.146;2022-12-10T12:04:46;91.90;;;28.38;;
29908;SDS011;36247;51.952;6.146;2022-12-10T12:07:38;101.40;;;32.58;;
29908;SDS011;36247;51.952;6.146;2022-12-10T12:13:05;108.32;;;33.20;;
29908;SDS011;36247;51.952;6.146;2022-12-10T12:16:03;112.22;;;33.25;;
29908;SDS011;36247;51.952;6.146;2022-12-10T12:18:55;103.78;;;33.15;;
29908;SDS011;36247;51.952;6.146;2022-12-10T12:21:25;116.88;;;35.10;;
29908;SDS011;36247;51.952;6.146;2022-12-10T12:23:52;92.55;;;28.23;;
29908;SDS011;36247;51.952;6.146;2022-12-10T12:35:59;86.15;;;27.15;;
29908;SDS011;36247;51.952;6.146;2022-12-10T12:41:05;99.80;;;31.40;;
29908;SDS011;36247;51.952;6.146;2022-12-10T12:43:57;99.10;;;28.60;;
29908;SDS011;36247;51.952;6.146;2022-12-10T12:46:44;93.78;;;28.95;;
29908;SDS011;36247;51.952;6.146;2022-12-10T12:49:28;99.10;;;31.23;;
29908;SDS011;36247;51.952;6.146;2022-12-10T12:52:07;95.60;;;29.88;;
29908;SDS011;36247;51.952;6.146;2022-12-10T12:54:50;105.33;;;30.00;;
29908;SDS011;36247;51.952;6.146;2022-12-10T13:05:30;101.90;;;28.92;;
29908;SDS011;36247;51.952;6.146;2022-12-10T13:10:44;111.30;;;30.58;;
29908;SDS011;36247;51.952;6.146;2022-12-10T13:13:25;96.00;;;29.10;;
29908;SDS011;36247;51.952;6.146;2022-12-10T13:15:53;105.50;;;30.25;;
29908;SDS011;36247;51.952;6.146;2022-12-10T13:20:51;96.38;;;31.63;;
29908;SDS011;36247;51.952;6.146;2022-12-10T13:23:52;103.88;;;29.80;;
29908;SDS011;36247;51.952;6.146;2022-12-10T13:32:17;106.68;;;30.17;;
29908;SDS011;36247;51.952;6.146;2022-12-10T13:34:45;113.50;;;30.23;;
29908;SDS011;36247;51.952;6.146;2022-12-10T13:39:47;98.85;;;29.67;;
29908;SDS011;36247;51.952;6.146;2022-12-10T13:42:37;111.75;;;33.25;;
29908;SDS011;36247;51.952;6.146;2022-12-10T13:45:26;91.00;;;28.10;;
29908;SDS011;36247;51.952;6.146;2022-12-10T13:50:38;97.43;;;29.35;;
29908;SDS011;36247;51.952;6.146;2022-12-10T13:58:40;99.22;;;28.98;;
29908;SDS011;36247;51.952;6.146;2022-12-10T14:06:24;103.90;;;28.25;;
29908;SDS011;36247;51.952;6.146;2022-12-10T14:09:02;99.43;;;29.33;;
29908;SDS011;36247;51.952;6.146;2022-12-10T14:11:31;127.43;;;30.15;;
29908;SDS011;36247;51.952;6.146;2022-12-10T14:14:01;109.28;;;31.08;;
29908;SDS011;36247;51.952;6.146;2022-12-10T14:16:30;91.80;;;32.60;;
29908;SDS011;36247;51.952;6.146;2022-12-10T14:19:01;130.55;;;30.00;;
29908;SDS011;36247;51.952;6.146;2022-12-10T14:21:36;111.25;;;29.92;;
29908;SDS011;36247;51.952;6.146;2022-12-10T14:24:05;122.10;;;31.75;;
29908;SDS011;36247;51.952;6.146;2022-12-10T14:26:32;84.63;;;26.38;;
29908;SDS011;36247;51.952;6.146;2022-12-10T14:29:01;100.25;;;29.15;;
29908;SDS011;36247;51.952;6.146;2022-12-10T14:31:33;116.05;;;29.33;;
29908;SDS011;36247;51.952;6.146;2022-12-10T14:34:07;93.13;;;28.83;;
29908;SDS011;36247;51.952;6.146;2022-12-10T14:36:37;93.85;;;28.70;;
29908;SDS011;36247;51.952;6.146;2022-12-10T14:39:12;69.22;;;20.92;;
29908;SDS011;36247;51.952;6.146;2022-12-10T14:41:40;159.73;;;31.33;;
29908;SDS011;36247;51.952;6.146;2022-12-10T14:44:08;124.97;;;28.95;;
29908;SDS011;36247;51.952;6.146;2022-12-10T14:46:38;143.57;;;29.83;;
29908;SDS011;36247;51.952;6.146;2022-12-10T14:49:03;112.82;;;28.42;;
29908;SDS011;36247;51.952;6.146;2022-12-10T14:51:33;98.82;;;28.17;;
29908;SDS011;36247;51.952;6.146;2022-12-10T14:54:02;118.20;;;30.25;;
29908;SDS011;36247;51.952;6.146;2022-12-10T14:56:32;95.82;;;28.15;;
29908;SDS011;36247;51.952;6.146;2022-12-10T14:59:16;122.03;;;28.45;;
29908;SDS011;36247;51.952;6.146;2022-12-10T15:01:52;150.13;;;27.92;;
29908;SDS011;36247;51.952;6.146;2022-12-10T15:06:47;104.55;;;26.40;;
29908;SDS011;36247;51.952;6.146;2022-12-10T15:09:20;88.55;;;26.35;;
29908;SDS011;36247;51.952;6.146;2022-12-10T15:11:53;98.75;;;29.10;;
29908;SDS011;36247;51.952;6.146;2022-12-10T15:14:20;113.25;;;29.30;;
29908;SDS011;36247;51.952;6.146;2022-12-10T15:16:46;95.80;;;29.92;;
29908;SDS011;36247;51.952;6.146;2022-12-10T15:21:44;139.00;;;29.88;;
29908;SDS011;36247;51.952;6.146;2022-12-10T15:27:02;119.40;;;27.23;;
29908;SDS011;36247;51.952;6.146;2022-12-10T15:29:40;186.98;;;28.67;;
29908;SDS011;36247;51.952;6.146;2022-12-10T15:32:08;120.75;;;27.23;;
29908;SDS011;36247;51.952;6.146;2022-12-10T15:34:53;106.07;;;25.85;;
29908;SDS011;36247;51.952;6.146;2022-12-10T15:37:24;88.78;;;25.65;;
29908;SDS011;36247;51.952;6.146;2022-12-10T15:39:53;111.53;;;28.23;;
29908;SDS011;36247;51.952;6.146;2022-12-10T15:42:27;101.53;;;25.52;;
29908;SDS011;36247;51.952;6.146;2022-12-10T15:45:09;127.95;;;27.65;;
29908;SDS011;36247;51.952;6.146;2022-12-10T15:47:45;105.40;;;25.00;;
29908;SDS011;36247;51.952;6.146;2022-12-10T15:50:10;152.88;;;26.38;;
29908;SDS011;36247;51.952;6.146;2022-12-10T15:52:36;115.30;;;25.35;;
29908;SDS011;36247;51.952;6.146;2022-12-10T15:55:02;91.53;;;27.27;;
29908;SDS011;36247;51.952;6.146;2022-12-10T15:57:32;111.53;;;25.77;;
29908;SDS011;36247;51.952;6.146;2022-12-10T16:00:00;128.88;;;29.58;;
29908;SDS011;36247;51.952;6.146;2022-12-10T16:05:11;89.38;;;22.63;;
29908;SDS011;36247;51.952;6.146;2022-12-10T16:07:37;83.05;;;21.65;;
29908;SDS011;36247;51.952;6.146;2022-12-10T16:10:03;97.28;;;25.08;;
29908;SDS011;36247;51.952;6.146;2022-12-10T16:12:29;66.47;;;19.20;;
29908;SDS011;36247;51.952;6.146;2022-12-10T16:14:55;77.72;;;24.10;;
29908;SDS011;36247;51.952;6.146;2022-12-10T16:17:25;117.85;;;24.55;;
29908;SDS011;36247;51.952;6.146;2022-12-10T16:19:53;155.73;;;25.45;;
29908;SDS011;36247;51.952;6.146;2022-12-10T16:22:21;92.13;;;25.33;;
29908;SDS011;36247;51.952;6.146;2022-12-10T16:24:47;96.15;;;27.60;;
29908;SDS011;36247;51.952;6.146;2022-12-10T16:27:13;107.47;;;27.05;;
29908;SDS011;36247;51.952;6.146;2022-12-10T16:29:40;129.05;;;27.35;;
29908;SDS011;36247;51.952;6.146;2022-12-10T16:32:08;98.15;;;23.15;;
29908;SDS011;36247;51.952;6.146;2022-12-10T16:34:34;120.30;;;26.67;;
29908;SDS011;36247;51.952;6.146;2022-12-10T16:37:00;144.85;;;26.48;;
29908;SDS011;36247;51.952;6.146;2022-12-10T16:39:25;109.15;;;24.05;;
29908;SDS011;36247;51.952;6.146;2022-12-10T16:41:54;108.50;;;28.45;;
29908;SDS011;36247;51.952;6.146;2022-12-10T16:44:20;138.30;;;27.58;;